Terminal Aerodrome Forecast
Issued by NWS

Home | Current Version | Previous Version | Text Only | Print | Product List | Glossary On
Versions: 1 2 3 4 5 6 7 8 9 10 11 12
760
FTUS42 TJSJ 050539
TAFISX
TAF
TISX 050539Z 0506/0606 01004KT P6SM FEW030
     FM051300 09013KT P6SM SCT025
     FM052200 05006KT P6SM FEW025=

USA.gov is the U.S. government's official web portal to all federal, state and local government web resources and services.